Time;durP1;ratioP1;P1;durP2;ratioP2;P2;SDS_P1;SDS_P2;PMS_P1;PMS_P2;Temp;Humidity;BMP_temperature;BMP_pressure;BME280_temperature;BME280_humidity;BME280_pressure;Samples;Min_cycle;Max_cycle;Signal;HPM_P1;HPM_P2
2021/12/25 00:04:47;;;;;;;3.92;2.40;;;7.00;99.90;;;;;;10389922;28;20029;-66
2021/12/25 00:09:48;;;;;;;4.85;2.40;;;7.00;99.90;;;;;;10406169;28;20052;-66
2021/12/25 00:14:48;;;;;;;4.78;2.65;;;7.00;99.90;;;;;;10409544;28;20069;-64
2021/12/25 00:19:49;;;;;;;5.10;2.28;;;7.00;99.90;;;;;;10397872;28;20388;-65
2021/12/25 00:24:50;;;;;;;4.50;2.38;;;7.00;99.90;;;;;;10401904;28;20491;-66
2021/12/25 00:29:58;;;;;;;4.95;2.30;;;6.90;99.90;;;;;;10403250;28;20022;-65
2021/12/25 00:34:58;;;;;;;3.60;2.10;;;6.90;99.90;;;;;;10403488;28;20128;-68
2021/12/25 00:39:59;;;;;;;4.53;1.80;;;6.90;99.90;;;;;;10403235;28;20013;-65
2021/12/25 00:45:00;;;;;;;4.57;2.00;;;6.90;99.90;;;;;;10402115;28;20025;-63
2021/12/25 00:50:01;;;;;;;4.75;1.67;;;6.90;99.90;;;;;;10400920;28;20447;-64
2021/12/25 00:55:04;;;;;;;6.15;2.00;;;6.90;99.90;;;;;;10406547;28;20033;-63
2021/12/25 01:00:10;;;;;;;5.45;1.83;;;6.80;99.90;;;;;;10400706;28;20049;-64
2021/12/25 01:05:13;;;;;;;3.55;1.88;;;6.80;99.90;;;;;;10409103;28;20149;-66
2021/12/25 01:10:17;;;;;;;7.20;1.92;;;7.00;99.90;;;;;;10408968;28;20029;-67
2021/12/25 01:15:24;;;;;;;3.88;1.73;;;6.80;99.90;;;;;;10407325;28;20033;-62
2021/12/25 01:51:56;;;;;;;;;;;6.60;99.70;;;;;;10408723;28;20036;-63
2021/12/25 01:56:56;;;;;;;5.10;1.45;;;6.60;99.10;;;;;;10402168;28;20334;-62
2021/12/25 02:01:57;;;;;;;2.63;1.00;;;6.50;99.60;;;;;;10405247;28;20033;-60
2021/12/25 02:06:58;;;;;;;3.58;1.25;;;6.50;99.60;;;;;;10406452;28;20030;-62
2021/12/25 02:11:59;;;;;;;5.55;1.48;;;6.50;99.60;;;;;;10408634;28;20029;-62
2021/12/25 02:17:16;;;;;;;3.05;1.20;;;6.50;99.60;;;;;;10407542;28;20052;-61
2021/12/25 02:22:18;;;;;;;2.47;1.20;;;6.50;99.50;;;;;;10399631;28;20022;-61
2021/12/25 02:27:19;;;;;;;6.15;1.52;;;6.40;99.50;;;;;;10408594;28;20037;-63
2021/12/25 02:32:20;;;;;;;1.42;1.05;;;6.40;99.50;;;;;;10407697;28;20407;-63
2021/12/25 02:37:21;;;;;;;2.00;0.80;;;6.30;99.40;;;;;;10400007;28;20129;-65
2021/12/25 02:42:22;;;;;;;2.35;1.20;;;6.30;99.40;;;;;;10405422;28;20032;-65
2021/12/25 02:47:22;;;;;;;1.77;0.80;;;6.30;99.40;;;;;;10405203;28;20130;-65
2021/12/25 02:52:23;;;;;;;3.20;0.80;;;6.30;99.30;;;;;;10407369;28;20029;-63
2021/12/25 02:57:24;;;;;;;1.30;0.70;;;6.30;99.30;;;;;;10398442;28;20037;-60
2021/12/25 03:02:25;;;;;;;3.55;0.90;;;6.20;99.20;;;;;;10404895;28;20053;-64
2021/12/25 03:07:26;;;;;;;2.53;0.68;;;6.20;99.20;;;;;;10405312;28;20038;-65
2021/12/25 03:12:35;;;;;;;4.13;0.65;;;6.20;99.20;;;;;;10405243;28;20120;-61
2021/12/25 03:17:36;;;;;;;1.55;0.80;;;6.20;99.10;;;;;;10404022;28;20045;-63
2021/12/25 03:22:38;;;;;;;1.25;0.60;;;6.10;99.10;;;;;;10396500;28;20020;-61
2021/12/25 03:27:41;;;;;;;0.85;0.50;;;6.00;99.00;;;;;;10404643;28;20021;-60
2021/12/25 03:32:42;;;;;;;1.80;0.80;;;6.10;99.00;;;;;;10404591;28;20503;-61
2021/12/25 03:37:43;;;;;;;1.85;0.77;;;6.00;99.00;;;;;;10403824;28;20418;-66
2021/12/25 03:42:44;;;;;;;2.40;0.70;;;6.00;98.90;;;;;;10403824;28;20029;-61
2021/12/25 03:47:47;;;;;;;1.05;0.60;;;5.90;98.90;;;;;;10403100;28;20407;-62
2021/12/25 03:58:13;;;;;;;1.77;0.60;;;5.90;98.80;;;;;;10399655;28;20115;-63
2021/12/25 04:04:04;;;;;;;1.10;0.70;;;5.90;98.80;;;;;;10402738;28;20096;-61
2021/12/25 04:08:43;;;;;;;1.60;0.73;;;6.00;98.80;;;;;;10401589;28;20038;-61
2021/12/25 04:13:44;;;;;;;0.98;0.50;;;6.00;98.70;;;;;;10402334;28;20033;-61
2021/12/25 04:18:45;;;;;;;2.63;0.65;;;5.80;98.60;;;;;;10402407;28;20041;-63
2021/12/25 04:23:46;;;;;;;0.60;0.40;;;5.80;98.60;;;;;;10394960;28;20032;-61
2021/12/25 04:29:01;;;;;;;2.25;0.75;;;6.00;98.60;;;;;;10405715;28;20030;-62
2021/12/25 05:05:49;;;;;;;1.08;0.32;;;5.50;98.20;;;;;;10402098;28;20121;-61
2021/12/25 05:10:50;;;;;;;0.50;0.40;;;5.50;98.10;;;;;;10410658;28;20116;-61
2021/12/25 05:15:51;;;;;;;1.60;0.40;;;5.60;98.10;;;;;;10409518;28;20033;-61
2021/12/25 05:20:52;;;;;;;0.75;0.45;;;5.40;98.00;;;;;;10404580;28;20093;-63
2021/12/25 05:25:53;;;;;;;0.50;0.35;;;5.40;98.00;;;;;;10417746;28;20561;-65
2021/12/25 05:30:55;;;;;;;1.80;0.45;;;5.40;98.00;;;;;;10408816;28;20014;-60
2021/12/25 05:35:56;;;;;;;1.45;0.77;;;5.70;98.00;;;;;;10408071;28;20133;-63
2021/12/25 05:40:57;;;;;;;1.13;0.50;;;5.30;97.90;;;;;;10407613;28;20029;-67
2021/12/25 05:45:58;;;;;;;1.55;0.50;;;5.30;97.80;;;;;;10407239;28;20034;-66
2021/12/25 05:50:58;;;;;;;2.40;0.52;;;5.20;97.80;;;;;;10407385;28;20037;-63
2021/12/25 05:55:59;;;;;;;0.73;0.30;;;5.20;97.70;;;;;;10407476;28;20041;-64
2021/12/25 06:01:00;;;;;;;0.30;0.20;;;5.20;97.70;;;;;;10398850;28;20057;-61
2021/12/25 06:06:01;;;;;;;1.88;0.43;;;5.20;97.70;;;;;;10407880;28;20033;-63
2021/12/25 06:11:02;;;;;;;1.00;0.50;;;5.10;97.60;;;;;;10407104;28;20029;-63
2021/12/25 06:16:03;;;;;;;1.88;0.40;;;5.10;97.60;;;;;;10406723;28;20051;-62
2021/12/25 06:21:04;;;;;;;0.30;0.30;;;5.10;97.50;;;;;;10400440;28;20028;-60
2021/12/25 06:26:05;;;;;;;1.13;0.50;;;5.40;97.60;;;;;;10405868;28;20120;-61
2021/12/25 06:31:06;;;;;;;0.32;0.30;;;5.00;97.40;;;;;;10402454;28;20029;-66
2021/12/25 06:36:06;;;;;;;1.27;0.40;;;5.00;97.40;;;;;;10405195;28;20033;-65
2021/12/25 06:41:08;;;;;;;1.02;0.40;;;5.20;97.40;;;;;;10399953;28;20033;-62
2021/12/25 06:46:09;;;;;;;0.60;0.40;;;5.00;97.30;;;;;;10405227;28;20116;-64
2021/12/25 06:51:10;;;;;;;1.63;0.75;;;4.90;97.30;;;;;;10404150;28;20566;-61
2021/12/25 06:56:11;;;;;;;1.23;0.30;;;4.90;97.20;;;;;;10405218;28;20107;-62
2021/12/25 07:01:12;;;;;;;0.90;0.40;;;4.90;97.20;;;;;;10385850;28;21053;-62
2021/12/25 07:06:12;;;;;;;0.68;0.35;;;4.90;97.20;;;;;;10377379;28;20025;-62
2021/12/25 07:11:14;;;;;;;2.08;0.60;;;4.80;97.10;;;;;;10402853;28;20041;-61
2021/12/25 07:16:15;;;;;;;0.88;0.40;;;4.80;97.10;;;;;;10404245;28;20025;-64
2021/12/25 07:21:15;;;;;;;0.75;0.30;;;4.80;97.00;;;;;;10385472;28;20017;-64
2021/12/25 07:26:17;;;;;;;0.63;0.38;;;4.80;97.00;;;;;;10403209;28;20601;-64
2021/12/25 07:31:20;;;;;;;1.45;0.40;;;4.70;96.90;;;;;;10404204;28;20022;-60
2021/12/25 07:36:21;;;;;;;0.68;0.45;;;4.90;96.90;;;;;;10404735;28;20147;-64
2021/12/25 07:41:22;;;;;;;0.40;0.30;;;4.70;96.80;;;;;;10373347;28;20081;-64
2021/12/25 07:46:23;;;;;;;0.73;0.30;;;4.70;96.80;;;;;;10385559;28;20128;-61
2021/12/25 07:51:24;;;;;;;0.75;0.30;;;4.70;96.80;;;;;;10403130;28;20550;-65
2021/12/25 07:56:26;;;;;;;0.50;0.25;;;4.60;96.70;;;;;;10396396;28;20096;-62
2021/12/25 08:01:28;;;;;;;0.60;0.30;;;4.60;96.70;;;;;;10396692;28;20060;-63
2021/12/25 08:06:30;;;;;;;0.40;0.20;;;4.60;96.70;;;;;;10411277;28;20096;-67
2021/12/25 08:11:31;;;;;;;1.48;0.30;;;4.60;96.60;;;;;;10411519;28;20589;-65
2021/12/25 08:16:32;;;;;;;0.47;0.20;;;4.60;96.60;;;;;;10411668;28;20038;-65
2021/12/25 08:21:32;;;;;;;1.77;0.40;;;4.50;96.50;;;;;;10403271;28;20095;-64
2021/12/25 08:26:33;;;;;;;0.43;0.30;;;5.00;96.60;;;;;;10410688;28;20471;-61
2021/12/25 08:31:34;;;;;;;0.47;0.28;;;4.50;96.40;;;;;;10400204;28;20025;-66
2021/12/25 08:36:36;;;;;;;1.50;0.50;;;4.50;96.30;;;;;;10409529;28;20064;-66
2021/12/25 08:41:38;;;;;;;0.30;0.30;;;4.50;96.30;;;;;;10410326;28;20053;-64
2021/12/25 08:46:45;;;;;;;1.65;0.15;;;4.40;96.30;;;;;;10404755;28;20411;-60
2021/12/25 08:51:46;;;;;;;0.40;0.22;;;4.40;96.30;;;;;;10410280;28;20034;-68
2021/12/25 08:56:47;;;;;;;0.65;0.47;;;4.40;96.30;;;;;;10394319;28;20073;-64
2021/12/25 09:01:48;;;;;;;1.55;0.20;;;4.70;96.30;;;;;;10395960;28;20099;-61
2021/12/25 09:06:49;;;;;;;0.80;0.35;;;4.40;96.20;;;;;;10408039;28;20095;-61
2021/12/25 09:11:50;;;;;;;0.35;0.20;;;4.40;96.10;;;;;;10401008;28;20480;-62
2021/12/25 09:16:51;;;;;;;1.02;0.28;;;4.40;96.30;;;;;;10405694;28;20450;-71
2021/12/25 09:21:52;;;;;;;0.90;0.40;;;4.60;96.00;;;;;;10395641;28;20495;-72
2021/12/25 09:26:53;;;;;;;0.43;0.20;;;4.40;96.00;;;;;;10407376;28;20219;-66
2021/12/25 09:31:54;;;;;;;0.75;0.28;;;4.50;96.00;;;;;;10380042;28;20137;-61
2021/12/25 09:36:54;;;;;;;1.85;0.30;;;4.60;95.90;;;;;;10406173;28;20041;-66
2021/12/25 09:41:55;;;;;;;0.90;0.20;;;4.60;95.90;;;;;;10390678;28;20095;-65
2021/12/25 09:46:56;;;;;;;0.90;0.30;;;4.60;95.90;;;;;;10381647;28;21949;-65
2021/12/25 09:51:57;;;;;;;1.50;0.73;;;4.80;96.00;;;;;;10369942;28;20030;-68
2021/12/25 09:56:58;;;;;;;1.13;0.45;;;4.80;95.90;;;;;;10398213;28;20534;-59
2021/12/25 10:02:01;;;;;;;0.43;0.30;;;4.80;95.90;;;;;;10403992;28;20496;-67
2021/12/25 10:07:17;;;;;;;1.83;0.47;;;4.80;95.80;;;;;;10385954;28;20110;-65
2021/12/25 10:12:18;;;;;;;0.43;0.30;;;4.80;95.70;;;;;;10406696;28;20095;-67
2021/12/25 10:17:22;;;;;;;1.05;0.20;;;4.90;95.80;;;;;;10406725;28;20042;-60
2021/12/25 10:22:23;;;;;;;1.65;0.30;;;4.90;95.70;;;;;;10398526;28;20045;-64
2021/12/25 10:27:23;;;;;;;1.85;0.30;;;5.00;95.80;;;;;;10404870;28;20141;-64
2021/12/25 10:32:25;;;;;;;1.13;0.40;;;5.40;95.70;;;;;;10405750;28;20024;-67
2021/12/25 10:37:26;;;;;;;0.50;0.30;;;5.20;95.60;;;;;;10405280;28;20037;-65
2021/12/25 10:42:33;;;;;;;0.63;0.22;;;5.20;95.60;;;;;;10401482;28;20030;-62
2021/12/25 10:47:34;;;;;;;1.40;0.30;;;5.50;95.60;;;;;;10404497;28;20116;-62
2021/12/25 10:52:41;;;;;;;0.63;0.30;;;5.30;95.50;;;;;;10405102;28;20565;-65
2021/12/25 10:57:43;;;;;;;0.40;0.17;;;5.30;95.40;;;;;;10386301;28;20120;-64
2021/12/25 11:02:55;;;;;;;2.03;0.25;;;5.30;95.40;;;;;;10404661;28;20132;-69
2021/12/25 11:08:10;;;;;;;1.38;0.20;;;5.40;95.40;;;;;;10404373;28;20476;-69
2021/12/25 11:13:43;;;;;;;4.32;0.50;;;5.40;95.30;;;;;;10404276;28;20361;-67
2021/12/25 11:19:09;;;;;;;1.30;0.40;;;5.60;95.30;;;;;;10403991;28;20037;-70
2021/12/25 11:24:17;;;;;;;0.38;0.38;;;5.60;95.50;;;;;;10397350;28;20029;-60
2021/12/25 11:29:20;;;;;;;0.52;0.30;;;5.70;95.40;;;;;;10402709;28;20091;-60
2021/12/25 11:34:22;;;;;;;2.00;0.55;;;5.70;95.30;;;;;;10402106;28;20029;-64
2021/12/25 11:39:25;;;;;;;0.77;0.32;;;5.70;95.30;;;;;;10401815;28;20565;-68
2021/12/25 11:44:48;;;;;;;0.88;0.30;;;5.60;95.30;;;;;;10402612;28;20559;-60
2021/12/25 11:49:54;;;;;;;3.67;0.40;;;5.60;95.30;;;;;;10393553;28;20372;-64
2021/12/25 11:55:22;;;;;;;1.02;0.30;;;5.50;95.40;;;;;;10400551;28;20068;-67
2021/12/25 12:00:35;;;;;;;1.52;0.50;;;5.50;95.50;;;;;;10394149;28;20098;-70
2021/12/25 12:05:38;;;;;;;0.30;0.20;;;5.40;95.40;;;;;;10401779;28;20061;-64
2021/12/25 12:10:45;;;;;;;2.47;0.35;;;5.50;95.70;;;;;;10402504;28;20017;-70
2021/12/25 12:15:52;;;;;;;0.88;0.30;;;5.40;95.60;;;;;;10393443;28;20049;-75
2021/12/25 12:21:04;;;;;;;2.10;0.38;;;5.40;95.70;;;;;;10406045;28;20104;-69
2021/12/25 12:26:11;;;;;;;0.30;0.17;;;5.40;95.70;;;;;;10403333;28;20391;-68
2021/12/25 12:31:40;;;;;;;1.08;0.30;;;6.50;96.00;;;;;;10401872;28;20074;-74
2021/12/25 12:36:41;;;;;;;1.27;0.20;;;5.30;95.60;;;;;;10392497;28;20040;-77
2021/12/25 12:42:00;;;;;;;2.13;0.40;;;5.30;95.80;;;;;;10403370;28;20400;-68
2021/12/25 12:47:04;;;;;;;0.50;0.35;;;5.30;95.60;;;;;;10379667;28;20030;-72
2021/12/25 12:52:25;;;;;;;1.77;0.50;;;5.30;95.80;;;;;;10400401;28;20396;-71
2021/12/25 13:02:40;;;;;;;0.50;0.40;;;5.20;95.20;;;;;;10398518;22;20070;-62
2021/12/25 13:07:43;;;;;;;0.40;0.30;;;5.20;95.80;;;;;;10316990;23;20523;-75
2021/12/25 13:12:47;;;;;;;0.93;0.20;;;5.20;95.80;;;;;;10300662;28;20045;-74
2021/12/25 13:17:58;;;;;;;2.55;0.60;;;5.10;95.80;;;;;;10300626;28;20069;-69
2021/12/25 13:23:00;;;;;;;2.85;0.30;;;5.10;95.80;;;;;;10300095;28;20041;-64
2021/12/25 13:28:04;;;;;;;0.80;0.30;;;5.10;95.80;;;;;;10294229;28;20874;-70
2021/12/25 13:33:13;;;;;;;0.98;0.73;;;5.10;95.70;;;;;;10307292;28;20027;-73
2021/12/25 13:38:15;;;;;;;1.00;0.20;;;5.10;95.60;;;;;;10308642;28;20087;-71
2021/12/25 13:43:17;;;;;;;1.63;0.40;;;5.10;95.70;;;;;;10299057;28;20019;-63
2021/12/25 13:48:17;;;;;;;0.88;0.38;;;5.00;95.70;;;;;;10298454;28;20048;-75
2021/12/25 13:53:18;;;;;;;0.60;0.40;;;5.00;95.70;;;;;;10301787;28;20069;-75
2021/12/25 13:58:19;;;;;;;1.80;0.40;;;5.00;95.70;;;;;;10310754;28;20133;-74
2021/12/25 14:03:24;;;;;;;1.58;0.50;;;5.00;95.70;;;;;;10291499;28;20034;-72
2021/12/25 14:08:26;;;;;;;0.75;0.30;;;4.90;95.60;;;;;;10296548;28;20096;-65
2021/12/25 14:13:31;;;;;;;2.15;0.52;;;4.90;95.60;;;;;;10304901;28;20511;-76
2021/12/25 14:18:36;;;;;;;0.55;0.30;;;4.90;95.60;;;;;;10294421;28;20034;-68
2021/12/25 14:23:37;;;;;;;0.73;0.32;;;4.90;95.50;;;;;;10295947;28;20503;-74
2021/12/25 14:28:38;;;;;;;0.57;0.25;;;5.00;95.60;;;;;;10293311;28;20030;-67
2021/12/25 14:34:03;;;;;;;0.35;0.30;;;4.80;95.50;;;;;;10292350;28;20464;-67
2021/12/25 14:39:05;;;;;;;0.80;0.32;;;4.80;95.10;;;;;;10295224;28;20206;-67
2021/12/25 14:44:19;;;;;;;2.40;0.38;;;4.80;95.40;;;;;;10317127;28;20026;-75
2021/12/25 14:49:20;;;;;;;1.70;0.40;;;4.70;95.20;;;;;;10317642;28;20026;-67
2021/12/25 14:54:29;;;;;;;0.55;0.20;;;4.70;95.30;;;;;;10308626;28;20038;-67
2021/12/25 14:59:30;;;;;;;2.30;0.40;;;4.70;95.20;;;;;;10306601;28;20090;-70
2021/12/25 15:04:35;;;;;;;0.45;0.38;;;4.70;95.30;;;;;;10314123;28;20488;-77
2021/12/25 15:09:39;;;;;;;2.00;0.32;;;4.70;95.30;;;;;;10299999;28;20033;-74
2021/12/25 15:14:46;;;;;;;1.35;0.50;;;4.60;95.20;;;;;;10316102;28;20031;-75
2021/12/25 15:19:55;;;;;;;1.85;0.32;;;4.60;95.20;;;;;;10307806;28;20022;-69
2021/12/25 15:24:59;;;;;;;1.70;0.40;;;4.60;95.20;;;;;;10315036;28;20106;-72
2021/12/25 15:30:06;;;;;;;2.30;0.40;;;4.50;95.10;;;;;;10320777;28;20022;-65
2021/12/25 15:35:11;;;;;;;0.52;0.30;;;4.50;95.10;;;;;;10299691;28;20294;-65
2021/12/25 15:40:34;;;;;;;2.20;0.45;;;4.50;95.10;;;;;;10309952;28;20022;-64
2021/12/25 15:45:35;;;;;;;0.80;0.32;;;4.70;95.30;;;;;;10315768;28;20034;-66
2021/12/25 15:50:36;;;;;;;1.88;0.50;;;4.90;95.10;;;;;;10318559;28;20011;-74
2021/12/25 15:55:37;;;;;;;1.30;0.50;;;4.90;95.00;;;;;;10316899;28;20068;-64
2021/12/25 16:00:43;;;;;;;3.70;0.73;;;4.80;95.00;;;;;;10308806;28;20023;-74
2021/12/25 16:05:45;;;;;;;0.85;0.40;;;4.80;95.10;;;;;;10313197;28;20137;-73
2021/12/25 16:10:46;;;;;;;0.88;0.50;;;4.70;95.10;;;;;;10310940;28;20801;-72
2021/12/25 16:15:50;;;;;;;0.90;0.40;;;4.60;95.10;;;;;;10318363;28;20116;-75
2021/12/25 16:20:53;;;;;;;1.80;0.50;;;4.60;95.10;;;;;;10320267;28;20033;-75
2021/12/25 16:25:53;;;;;;;3.28;0.80;;;4.60;95.00;;;;;;10304470;28;20512;-75
2021/12/25 16:30:55;;;;;;;4.25;0.70;;;4.60;95.00;;;;;;10313592;28;20391;-70
2021/12/25 16:35:56;;;;;;;1.42;0.63;;;4.60;95.00;;;;;;10309561;28;20080;-71
2021/12/25 16:40:57;;;;;;;1.38;0.50;;;4.50;95.00;;;;;;10316304;28;20023;-68
2021/12/25 16:45:58;;;;;;;1.10;0.47;;;4.50;95.00;;;;;;10321671;28;20018;-74
2021/12/25 16:51:01;;;;;;;1.17;0.63;;;4.50;94.90;;;;;;10318082;28;20130;-74
2021/12/25 16:56:02;;;;;;;1.67;0.70;;;4.40;94.90;;;;;;10313232;28;20034;-74
2021/12/25 17:01:03;;;;;;;1.42;0.60;;;4.30;94.80;;;;;;10315378;28;20030;-66
2021/12/25 17:06:05;;;;;;;2.15;0.60;;;4.40;94.80;;;;;;10321744;28;20050;-61
2021/12/25 17:11:07;;;;;;;1.15;0.60;;;4.30;94.80;;;;;;10320885;28;20029;-63
2021/12/25 17:16:09;;;;;;;2.58;0.95;;;4.30;94.70;;;;;;10319218;28;20711;-74
2021/12/25 17:21:10;;;;;;;2.35;0.60;;;4.20;94.60;;;;;;10315618;28;20214;-70
2021/12/25 17:26:11;;;;;;;1.30;0.60;;;4.20;94.60;;;;;;10315536;28;20114;-72
2021/12/25 17:31:13;;;;;;;0.60;0.52;;;4.20;94.60;;;;;;10317186;28;20262;-73
2021/12/25 17:36:16;;;;;;;1.17;0.88;;;4.20;94.60;;;;;;10321687;28;20092;-76
2021/12/25 17:41:33;;;;;;;1.08;0.85;;;4.10;94.50;;;;;;10314827;28;20057;-73
2021/12/25 17:46:34;;;;;;;3.90;0.77;;;4.10;94.50;;;;;;10310921;28;20080;-75
2021/12/25 17:51:35;;;;;;;5.22;1.80;;;4.10;94.50;;;;;;10314341;28;20491;-69
2021/12/25 17:56:36;;;;;;;2.58;1.50;;;4.30;94.60;;;;;;10301705;28;20031;-65
2021/12/25 18:01:37;;;;;;;1.70;1.42;;;4.40;94.30;;;;;;10318367;28;20474;-71
2021/12/25 18:06:44;;;;;;;2.92;1.65;;;4.50;94.20;;;;;;10305609;28;20057;-61
2021/12/25 18:11:47;;;;;;;4.95;2.55;;;4.50;94.70;;;;;;10296827;28;20102;-73
2021/12/25 18:16:47;;;;;;;3.33;2.55;;;4.70;94.40;;;;;;10289684;28;20035;-62
2021/12/25 18:21:48;;;;;;;4.70;3.45;;;4.60;94.30;;;;;;10312105;28;20023;-75
2021/12/25 18:26:52;;;;;;;3.05;2.67;;;4.50;94.40;;;;;;10321121;28;20023;-72
2021/12/25 18:31:53;;;;;;;4.43;2.40;;;4.50;94.40;;;;;;10312466;28;20034;-70
2021/12/25 18:36:54;;;;;;;2.75;2.00;;;4.50;94.30;;;;;;10310786;28;20074;-74
2021/12/25 18:41:55;;;;;;;3.13;2.30;;;4.60;94.50;;;;;;10304440;28;20079;-68
2021/12/25 18:46:58;;;;;;;2.13;1.60;;;4.50;94.50;;;;;;10315431;28;20030;-62
2021/12/25 18:51:59;;;;;;;3.00;1.77;;;4.40;94.50;;;;;;10324048;28;20021;-75
2021/12/25 18:57:01;;;;;;;1.92;1.70;;;4.30;94.50;;;;;;10304461;28;20476;-66
2021/12/25 19:02:02;;;;;;;4.80;1.98;;;4.30;94.50;;;;;;10309435;28;20026;-67
2021/12/25 19:07:03;;;;;;;1.48;1.38;;;4.30;94.50;;;;;;10308460;28;20638;-61
2021/12/25 19:12:05;;;;;;;2.63;1.38;;;4.20;94.50;;;;;;10305307;28;20031;-69
2021/12/25 19:17:05;;;;;;;4.00;1.30;;;4.20;94.50;;;;;;10293978;28;20042;-65
2021/12/25 19:22:07;;;;;;;1.85;1.30;;;4.20;94.60;;;;;;10297927;28;20018;-67
2021/12/25 19:27:11;;;;;;;2.25;1.25;;;4.20;94.50;;;;;;10292162;28;20039;-59
2021/12/25 19:32:12;;;;;;;2.47;1.23;;;4.20;94.50;;;;;;10302564;28;20054;-68
2021/12/25 19:37:13;;;;;;;2.50;1.17;;;4.10;94.60;;;;;;10313635;28;20129;-59
2021/12/25 19:42:13;;;;;;;2.42;1.10;;;4.10;94.60;;;;;;10306694;28;20029;-69
2021/12/25 19:47:17;;;;;;;1.92;1.00;;;4.00;94.60;;;;;;10309902;28;20034;-58
2021/12/25 19:52:18;;;;;;;1.50;1.00;;;4.00;94.60;;;;;;10311463;28;20023;-63
2021/12/25 19:57:19;;;;;;;1.65;1.17;;;4.00;94.60;;;;;;10302248;28;20092;-64
2021/12/25 20:02:20;;;;;;;2.08;1.10;;;3.90;94.60;;;;;;10312037;28;20030;-67
2021/12/25 20:07:20;;;;;;;1.55;1.08;;;3.90;94.60;;;;;;10332206;28;20054;-67
2021/12/25 20:12:21;;;;;;;7.57;1.02;;;4.40;94.70;;;;;;10328459;28;20018;-67
2021/12/25 20:17:22;;;;;;;2.03;0.93;;;3.90;94.50;;;;;;10304137;28;20057;-58
2021/12/25 20:22:23;;;;;;;2.05;0.82;;;3.90;94.40;;;;;;10319821;28;20015;-60
2021/12/25 20:27:23;;;;;;;4.32;1.30;;;3.90;94.40;;;;;;10325353;28;20380;-70
2021/12/25 20:32:24;;;;;;;3.90;1.00;;;3.80;94.40;;;;;;10326165;28;20403;-69
2021/12/25 20:37:25;;;;;;;1.73;1.05;;;3.80;94.70;;;;;;10323431;28;20570;-66
2021/12/25 20:42:26;;;;;;;2.35;1.30;;;3.80;94.40;;;;;;10304534;28;20053;-67
2021/12/25 20:47:28;;;;;;;2.08;1.30;;;3.70;94.30;;;;;;10307608;28;20061;-57
2021/12/25 20:52:28;;;;;;;2.05;1.00;;;3.70;94.30;;;;;;10309255;28;20023;-60
2021/12/25 20:57:29;;;;;;;1.52;0.93;;;3.70;94.20;;;;;;10305467;28;20104;-63
2021/12/25 21:02:30;;;;;;;1.30;0.90;;;4.00;94.30;;;;;;10303252;28;20042;-68
2021/12/25 21:07:31;;;;;;;2.08;1.13;;;3.60;94.10;;;;;;10298773;28;20133;-60
2021/12/25 21:12:31;;;;;;;1.88;1.10;;;3.60;94.10;;;;;;10297543;28;20038;-72
2021/12/25 21:17:32;;;;;;;1.13;0.75;;;3.60;94.10;;;;;;10292800;28;20031;-69
2021/12/25 21:22:33;;;;;;;2.78;1.15;;;3.50;94.10;;;;;;10296618;28;20154;-73
2021/12/25 21:27:34;;;;;;;4.57;1.20;;;3.50;94.00;;;;;;10299136;28;20046;-69
2021/12/25 21:32:39;;;;;;;1.88;1.20;;;3.50;94.00;;;;;;10297759;28;20057;-65
2021/12/25 21:37:40;;;;;;;1.95;1.15;;;3.50;93.90;;;;;;10295922;28;20480;-72
2021/12/25 21:42:41;;;;;;;2.10;0.93;;;3.50;93.90;;;;;;10298053;28;20026;-68
2021/12/25 21:47:42;;;;;;;1.55;0.88;;;3.40;93.90;;;;;;10318125;28;20015;-71
2021/12/25 21:52:44;;;;;;;2.10;1.25;;;3.40;93.80;;;;;;10320249;28;20014;-73
2021/12/25 21:57:46;;;;;;;2.22;1.20;;;3.40;93.80;;;;;;10313909;28;20415;-66
2021/12/25 22:02:47;;;;;;;1.92;1.20;;;3.30;93.80;;;;;;10303166;28;20086;-71
2021/12/25 22:07:49;;;;;;;3.25;1.08;;;3.30;93.80;;;;;;10305356;28;20132;-69
2021/12/25 22:12:51;;;;;;;4.88;1.60;;;3.50;93.80;;;;;;10301154;28;20392;-70
2021/12/25 22:17:52;;;;;;;3.10;1.10;;;3.50;93.70;;;;;;10293860;28;20039;-67
2021/12/25 22:22:53;;;;;;;2.83;1.17;;;3.40;93.60;;;;;;10300795;28;20379;-61
2021/12/25 22:27:54;;;;;;;2.25;0.88;;;3.40;93.60;;;;;;10289985;28;20456;-62
2021/12/25 22:32:55;;;;;;;1.33;1.08;;;3.40;93.60;;;;;;10292113;28;20576;-68
2021/12/25 22:38:00;;;;;;;2.30;1.13;;;3.30;93.60;;;;;;10305974;28;20117;-71
2021/12/25 22:43:01;;;;;;;2.85;0.98;;;3.30;93.60;;;;;;10317731;28;20014;-70
2021/12/25 22:48:04;;;;;;;1.95;1.00;;;3.30;93.50;;;;;;10319108;28;20026;-71
2021/12/25 22:53:07;;;;;;;1.30;0.95;;;3.20;93.50;;;;;;10319731;28;20041;-61
2021/12/25 22:58:08;;;;;;;5.82;1.27;;;3.30;93.50;;;;;;10309130;28;20054;-62
2021/12/25 23:03:11;;;;;;;1.48;0.88;;;3.20;93.50;;;;;;10296549;28;20038;-60
2021/12/25 23:08:19;;;;;;;1.75;1.10;;;3.20;93.50;;;;;;10308533;28;20094;-61
2021/12/25 23:13:21;;;;;;;2.20;1.00;;;3.20;93.40;;;;;;10314183;28;20504;-62
2021/12/25 23:18:25;;;;;;;1.38;0.90;;;3.20;93.40;;;;;;10307064;28;20053;-64
2021/12/25 23:23:26;;;;;;;2.92;1.05;;;3.10;93.30;;;;;;10314705;28;20464;-62
2021/12/25 23:28:27;;;;;;;3.63;1.35;;;3.10;93.30;;;;;;10300628;28;20042;-71
2021/12/25 23:33:30;;;;;;;1.92;0.98;;;3.10;93.30;;;;;;10298399;28;20058;-72
2021/12/25 23:38:36;;;;;;;2.40;1.10;;;3.10;93.30;;;;;;10311700;28;20046;-67
2021/12/25 23:43:41;;;;;;;2.60;1.20;;;3.10;93.20;;;;;;10308409;28;20442;-71
2021/12/25 23:48:43;;;;;;;3.22;0.80;;;3.10;93.20;;;;;;10306373;28;20516;-61
2021/12/25 23:53:44;;;;;;;2.55;1.08;;;3.10;93.20;;;;;;10283745;28;20033;-69
2021/12/25 23:58:47;;;;;;;1.83;0.98;;;3.00;93.10;;;;;;10309237;28;20042;-61
